<?xml version='1.0' encoding='UTF-8'?><gpx version="1.1" creator="JPX - https://github.com/jenetics/jpx" xmlns="http://www.topografix.com/GPX/1/1"><trk><trkseg><trkpt lat="40.346098546821814" lon="18.005558929155097"><ele>38.0</ele><time>2026-04-12T13:08:36.999Z</time></trkpt><trkpt lat="40.34609018112541" lon="18.005656489700637"><ele>38.0</ele><time>2026-04-12T13:08:37.999Z</time></trkpt><trkpt lat="40.34615446821312" lon="18.00574153765409"><ele>38.0</ele><time>2026-04-12T13:08:39.999Z</time></trkpt><trkpt lat="40.346201032816296" lon="18.005802871107562"><ele>38.0</ele><time>2026-04-12T13:08:40.999Z</time></trkpt><trkpt lat="40.346282379658206" lon="18.00589216634317"><ele>38.0</ele><time>2026-04-12T13:08:42.999Z</time></trkpt><trkpt lat="40.346341156733644" lon="18.005995604751245"><ele>38.0</ele><time>2026-04-12T13:08:43.999Z</time></trkpt><trkpt lat="40.346393230875" lon="18.00614152487564"><ele>38.0</ele><time>2026-04-12T13:08:44.999Z</time></trkpt><trkpt lat="40.346449532709" lon="18.006246540448245"><ele>38.0</ele><time>2026-04-12T13:08:45.999Z</time></trkpt><trkpt lat="40.34645993697836" lon="18.00637384034856"><ele>38.0</ele><time>2026-04-12T13:08:46.999Z</time></trkpt><trkpt lat="40.34648887940478" lon="18.006520614069927"><ele>38.0</ele><time>2026-04-12T13:08:47.999Z</time></trkpt><trkpt lat="40.34656910994982" lon="18.00665852521471"><ele>38.0</ele><time>2026-04-12T13:08:48.999Z</time></trkpt><trkpt lat="40.34663728001224" lon="18.00682093849246"><ele>37.0</ele><time>2026-04-12T13:08:49.999Z</time></trkpt><trkpt lat="40.346705575109766" lon="18.006954043144056"><ele>36.0</ele><time>2026-04-12T13:08:50.999Z</time></trkpt><trkpt lat="40.34678161019014" lon="18.00709858713137"><ele>35.0</ele><time>2026-04-12T13:08:51.999Z</time></trkpt><trkpt lat="40.3468304743263" lon="18.00726500116357"><ele>34.0</ele><time>2026-04-12T13:08:52.999Z</time></trkpt><trkpt lat="40.34690714017705" lon="18.007360003334785"><ele>34.0</ele><time>2026-04-12T13:08:53.999Z</time></trkpt><trkpt lat="40.34697715261981" lon="18.007420523185118"><ele>34.0</ele><time>2026-04-12T13:08:54.999Z</time></trkpt><trkpt lat="40.34706409477286" lon="18.007470456193477"><ele>34.0</ele><time>2026-04-12T13:08:56.999Z</time></trkpt><trkpt lat="40.347275584507514" lon="18.00737817008686"><ele>34.0</ele><time>2026-04-12T13:08:57.999Z</time></trkpt><trkpt lat="40.347329215254895" lon="18.00750785098591"><ele>35.66666666666667</ele><time>2026-04-12T13:08:59.999Z</time></trkpt><trkpt lat="40.34739058844701" lon="18.007734961950874"><ele>37.333333333333336</ele><time>2026-04-12T13:09:01.999Z</time></trkpt><trkpt lat="40.34742203295709" lon="18.007922402896863"><ele>39.0</ele><time>2026-04-12T13:09:02.999Z</time></trkpt><trkpt lat="40.347435191123715" lon="18.008139961139342"><ele>39.0</ele><time>2026-04-12T13:09:03.999Z</time></trkpt><trkpt lat="40.3474483978221" lon="18.00833367821719"><ele>39.0</ele><time>2026-04-12T13:09:04.999Z</time></trkpt><trkpt lat="40.34744538215621" lon="18.008539764784345"><ele>39.0</ele><time>2026-04-12T13:09:05.999Z</time></trkpt><trkpt lat="40.34744942138492" lon="18.008739001522052"><ele>39.0</ele><time>2026-04-12T13:09:06.999Z</time></trkpt><trkpt lat="40.34744869679924" lon="18.00898116765856"><ele>39.0</ele><time>2026-04-12T13:09:07.999Z</time></trkpt><trkpt lat="40.34744892824438" lon="18.00923185041886"><ele>39.0</ele><time>2026-04-12T13:09:08.999Z</time></trkpt><trkpt lat="40.34745159891941" lon="18.00948104241119"><ele>38.666666666666664</ele><time>2026-04-12T13:09:09.999Z</time></trkpt><trkpt lat="40.34743297283185" lon="18.009742532686666"><ele>38.33333333333333</ele><time>2026-04-12T13:09:10.999Z</time></trkpt><trkpt lat="40.347436031094716" lon="18.0099860033126"><ele>38.0</ele><time>2026-04-12T13:09:11.999Z</time></trkpt><trkpt lat="40.3474250911379" lon="18.010219587341165"><ele>37.666666666666664</ele><time>2026-04-12T13:09:12.999Z</time></trkpt><trkpt lat="40.347453987968635" lon="18.010505619921684"><ele>37.333333333333336</ele><time>2026-04-12T13:09:13.999Z</time></trkpt><trkpt lat="40.347459321644344" lon="18.01079536027128"><ele>37.0</ele><time>2026-04-12T13:09:14.999Z</time></trkpt><trkpt lat="40.34748032612599" lon="18.011043495878056"><ele>36.66666666666667</ele><time>2026-04-12T13:09:15.999Z</time></trkpt><trkpt lat="40.347501949658934" lon="18.011308600970786"><ele>36.333333333333336</ele><time>2026-04-12T13:09:16.999Z</time></trkpt><trkpt lat="40.34751844562791" lon="18.01150685608507"><ele>36.0</ele><time>2026-04-12T13:09:17.999Z</time></trkpt><trkpt lat="40.3475475297907" lon="18.01175515855014"><ele>36.666666666666664</ele><time>2026-04-12T13:09:18.999Z</time></trkpt><trkpt lat="40.3475805794225" lon="18.011980634365322"><ele>37.33333333333333</ele><time>2026-04-12T13:09:19.999Z</time></trkpt><trkpt lat="40.347639610166546" lon="18.012217344673775"><ele>38.0</ele><time>2026-04-12T13:09:20.999Z</time></trkpt><trkpt lat="40.347710964629876" lon="18.012444305431636"><ele>37.0</ele><time>2026-04-12T13:09:21.999Z</time></trkpt><trkpt lat="40.34779086114006" lon="18.012671369622552"><ele>36.0</ele><time>2026-04-12T13:09:22.999Z</time></trkpt><trkpt lat="40.347873465302754" lon="18.01289767061057"><ele>35.0</ele><time>2026-04-12T13:09:23.999Z</time></trkpt><trkpt lat="40.34796055196958" lon="18.01318390779703"><ele>35.0</ele><time>2026-04-12T13:09:24.999Z</time></trkpt><trkpt lat="40.348045927911535" lon="18.0134484526609"><ele>35.0</ele><time>2026-04-12T13:09:25.999Z</time></trkpt><trkpt lat="40.348114135145856" lon="18.013720656872486"><ele>35.0</ele><time>2026-04-12T13:09:26.999Z</time></trkpt><trkpt lat="40.34818052735292" lon="18.0139952924276"><ele>35.0</ele><time>2026-04-12T13:09:27.999Z</time></trkpt><trkpt lat="40.34822119077462" lon="18.014306418653142"><ele>35.0</ele><time>2026-04-12T13:09:28.999Z</time></trkpt><trkpt lat="40.34824318485612" lon="18.014463894752016"><ele>35.0</ele><time>2026-04-12T13:09:29.999Z</time></trkpt><trkpt lat="40.34806633815725" lon="18.01101881693163"><ele>35.0</ele><time>2026-04-12T13:09:30.999Z</time></trkpt><trkpt lat="40.33707965142238" lon="18.03125480370598"><ele>35.0</ele><time>2026-04-12T13:11:57.011Z</time></trkpt><trkpt lat="40.33693680989203" lon="18.031368471480143"><ele>35.0</ele><time>2026-04-12T13:11:58.011Z</time></trkpt><trkpt lat="40.33678871299042" lon="18.03148712397236"><ele>35.0</ele><time>2026-04-12T13:11:59.011Z</time></trkpt><trkpt lat="40.33680280249403" lon="18.031757839818162"><ele>35.0</ele><time>2026-04-12T13:12:00.011Z</time></trkpt><trkpt lat="40.33666999505535" lon="18.031879739283045"><ele>35.0</ele><time>2026-04-12T13:12:01.011Z</time></trkpt><trkpt lat="40.33646538445312" lon="18.031919745716543"><ele>35.0</ele><time>2026-04-12T13:12:02.01Z</time></trkpt><trkpt lat="40.33635121933903" lon="18.032069227152814"><ele>35.0</ele><time>2026-04-12T13:12:03.011Z</time></trkpt><trkpt lat="40.336290558973054" lon="18.032166683604537"><ele>35.0</ele><time>2026-04-12T13:12:04.011Z</time></trkpt><trkpt lat="40.33618057731445" lon="18.032283533397106"><ele>35.0</ele><time>2026-04-12T13:12:05.012Z</time></trkpt><trkpt lat="40.336051421706024" lon="18.032460642883276"><ele>35.0</ele><time>2026-04-12T13:12:07.011Z</time></trkpt><trkpt lat="40.335948076913006" lon="18.032568347163828"><ele>35.0</ele><time>2026-04-12T13:12:08.011Z</time></trkpt><trkpt lat="40.33584511160221" lon="18.032678390456688"><ele>35.0</ele><time>2026-04-12T13:12:09.011Z</time></trkpt><trkpt lat="40.33555595806803" lon="18.03250813389102"><ele>35.0</ele><time>2026-04-12T13:12:10.011Z</time></trkpt><trkpt lat="40.33546208110021" lon="18.032527536364697"><ele>35.0</ele><time>2026-04-12T13:12:11.011Z</time></trkpt><trkpt lat="40.33539520866917" lon="18.032582402637505"><ele>35.0</ele><time>2026-04-12T13:12:12.013Z</time></trkpt><trkpt lat="40.33533916186611" lon="18.032517467319813"><ele>35.0</ele><time>2026-04-12T13:12:13.012Z</time></trkpt><trkpt lat="40.33561725039774" lon="18.032709410823042"><ele>35.0</ele><time>2026-04-12T13:12:14.013Z</time></trkpt><trkpt lat="40.33598186902354" lon="18.032982753079782"><ele>35.0</ele><time>2026-04-12T13:12:15.013Z</time></trkpt><trkpt lat="40.33606399668103" lon="18.03311701886325"><ele>35.0</ele><time>2026-04-12T13:12:16.012Z</time></trkpt><trkpt lat="40.335997651512315" lon="18.033184152711762"><ele>35.0</ele><time>2026-04-12T13:12:17.013Z</time></trkpt><trkpt lat="40.33597838624275" lon="18.033377751153004"><ele>35.0</ele><time>2026-04-12T13:12:19.013Z</time></trkpt><trkpt lat="40.335843906313045" lon="18.03343340384487"><ele>35.0</ele><time>2026-04-12T13:12:20.013Z</time></trkpt><trkpt lat="40.33568401900243" lon="18.033441678777372"><ele>34.666666666666664</ele><time>2026-04-12T13:12:21.013Z</time></trkpt><trkpt lat="40.33555291920745" lon="18.033544645279036"><ele>34.333333333333336</ele><time>2026-04-12T13:12:22.013Z</time></trkpt><trkpt lat="40.33539028814942" lon="18.033650013445683"><ele>34.0</ele><time>2026-04-12T13:12:23.013Z</time></trkpt><trkpt lat="40.33524431980026" lon="18.03376911509302"><ele>34.0</ele><time>2026-04-12T13:12:24.013Z</time></trkpt><trkpt lat="40.33511114997695" lon="18.03387362845122"><ele>34.0</ele><time>2026-04-12T13:12:25.014Z</time></trkpt><trkpt lat="40.3349723181798" lon="18.03397264063286"><ele>34.0</ele><time>2026-04-12T13:12:26.012Z</time></trkpt><trkpt lat="40.33486309162783" lon="18.034041231637477"><ele>34.0</ele><time>2026-04-12T13:12:27.012Z</time></trkpt><trkpt lat="40.334761064980775" lon="18.034122348957723"><ele>34.66666666666667</ele><time>2026-04-12T13:12:28.013Z</time></trkpt><trkpt lat="40.334597704544265" lon="18.034204015423164"><ele>35.333333333333336</ele><time>2026-04-12T13:12:29.013Z</time></trkpt><trkpt lat="40.33440189833653" lon="18.03432001655692"><ele>36.0</ele><time>2026-04-12T13:12:30.013Z</time></trkpt><trkpt lat="40.33425820869925" lon="18.03441622652399"><ele>36.0</ele><time>2026-04-12T13:12:31.014Z</time></trkpt><trkpt lat="40.33412993937466" lon="18.034503592626226"><ele>36.0</ele><time>2026-04-12T13:12:32.013Z</time></trkpt><trkpt lat="40.33398339544324" lon="18.034603405820082"><ele>36.0</ele><time>2026-04-12T13:12:33.013Z</time></trkpt><trkpt lat="40.33381421916337" lon="18.034725310923026"><ele>36.0</ele><time>2026-04-12T13:12:34.013Z</time></trkpt><trkpt lat="40.33366640901064" lon="18.03485023723648"><ele>36.0</ele><time>2026-04-12T13:12:35.013Z</time></trkpt><trkpt lat="40.33353795419168" lon="18.03496842362064"><ele>36.0</ele><time>2026-04-12T13:12:36.012Z</time></trkpt><trkpt lat="40.33342868318019" lon="18.03509088873426"><ele>35.25</ele><time>2026-04-12T13:12:37.014Z</time></trkpt><trkpt lat="40.333348074556675" lon="18.035182202507507"><ele>34.5</ele><time>2026-04-12T13:12:38.013Z</time></trkpt><trkpt lat="40.33322082928833" lon="18.03532634651347"><ele>33.75</ele><time>2026-04-12T13:12:39.013Z</time></trkpt><trkpt lat="40.333116563689174" lon="18.035440708110954"><ele>33.0</ele><time>2026-04-12T13:12:40.013Z</time></trkpt><trkpt lat="40.333010635817196" lon="18.035549795650155"><ele>33.0</ele><time>2026-04-12T13:12:41.012Z</time></trkpt><trkpt lat="40.332902465369465" lon="18.035656134089347"><ele>33.0</ele><time>2026-04-12T13:12:42.013Z</time></trkpt><trkpt lat="40.33279247801357" lon="18.03576004881753"><ele>33.0</ele><time>2026-04-12T13:12:43.012Z</time></trkpt><trkpt lat="40.332685068140805" lon="18.035860536893704"><ele>33.0</ele><time>2026-04-12T13:12:44.014Z</time></trkpt><trkpt lat="40.33257731787236" lon="18.035961343433005"><ele>33.0</ele><time>2026-04-12T13:12:45.013Z</time></trkpt><trkpt lat="40.33246328060408" lon="18.03606421655614"><ele>33.0</ele><time>2026-04-12T13:12:46.013Z</time></trkpt><trkpt lat="40.33234594053077" lon="18.036163854761526"><ele>33.0</ele><time>2026-04-12T13:12:47.012Z</time></trkpt><trkpt lat="40.33222367182086" lon="18.036256400076027"><ele>33.0</ele><time>2026-04-12T13:12:48.013Z</time></trkpt><trkpt lat="40.332082449266125" lon="18.036330374637036"><ele>33.0</ele><time>2026-04-12T13:12:49.013Z</time></trkpt><trkpt lat="40.3319536671606" lon="18.036437089600582"><ele>33.0</ele><time>2026-04-12T13:12:50.013Z</time></trkpt><trkpt lat="40.33183542641879" lon="18.036516257573012"><ele>33.0</ele><time>2026-04-12T13:12:51.013Z</time></trkpt><trkpt lat="40.331710626511274" lon="18.036609674984213"><ele>33.0</ele><time>2026-04-12T13:12:52.012Z</time></trkpt><trkpt lat="40.33157134264381" lon="18.036677357062107"><ele>33.25</ele><time>2026-04-12T13:12:53.012Z</time></trkpt><trkpt lat="40.33142430254995" lon="18.036745950330463"><ele>33.5</ele><time>2026-04-12T13:12:54.014Z</time></trkpt><trkpt lat="40.331287925794" lon="18.03678324554974"><ele>33.75</ele><time>2026-04-12T13:12:55.013Z</time></trkpt><trkpt lat="40.33116415861279" lon="18.036809380015722"><ele>34.0</ele><time>2026-04-12T13:12:56.013Z</time></trkpt><trkpt lat="40.331080604029296" lon="18.03682215521693"><ele>34.0</ele><time>2026-04-12T13:12:57.013Z</time></trkpt><trkpt lat="40.330939433784266" lon="18.036835853734747"><ele>34.0</ele><time>2026-04-12T13:12:58.013Z</time></trkpt><trkpt lat="40.33081689676214" lon="18.036845704921245"><ele>34.0</ele><time>2026-04-12T13:12:59.011Z</time></trkpt><trkpt lat="40.33068560719142" lon="18.036853750052288"><ele>34.0</ele><time>2026-04-12T13:13:00.013Z</time></trkpt><trkpt lat="40.33055868240656" lon="18.036851829042032"><ele>33.75</ele><time>2026-04-12T13:13:01.012Z</time></trkpt><trkpt lat="40.330430433542645" lon="18.036853349000353"><ele>33.5</ele><time>2026-04-12T13:13:02.013Z</time></trkpt><trkpt lat="40.330302960853096" lon="18.036856787269546"><ele>33.25</ele><time>2026-04-12T13:13:03.012Z</time></trkpt><trkpt lat="40.330178505378505" lon="18.036858530587363"><ele>33.0</ele><time>2026-04-12T13:13:04.013Z</time></trkpt><trkpt lat="40.33004460532681" lon="18.036866886264498"><ele>33.0</ele><time>2026-04-12T13:13:05.013Z</time></trkpt><trkpt lat="40.32989884978924" lon="18.03690776540297"><ele>33.0</ele><time>2026-04-12T13:13:06.013Z</time></trkpt><trkpt lat="40.32977064641176" lon="18.036967085503775"><ele>33.0</ele><time>2026-04-12T13:13:07.015Z</time></trkpt><trkpt lat="40.32963129794756" lon="18.036953117868954"><ele>33.0</ele><time>2026-04-12T13:13:08.014Z</time></trkpt><trkpt lat="40.329496842651736" lon="18.036992574221298"><ele>33.666666666666664</ele><time>2026-04-12T13:13:09.016Z</time></trkpt><trkpt lat="40.32936368964665" lon="18.03699377256306"><ele>34.33333333333333</ele><time>2026-04-12T13:13:11.016Z</time></trkpt><trkpt lat="40.32929489231462" lon="18.03699705615219"><ele>35.0</ele><time>2026-04-12T13:13:12.014Z</time></trkpt><trkpt lat="40.32919950788361" lon="18.036692145544283"><ele>34.75</ele><time>2026-04-12T13:13:13.014Z</time></trkpt><trkpt lat="40.32930491775095" lon="18.036530857929414"><ele>34.5</ele><time>2026-04-12T13:13:14.014Z</time></trkpt><trkpt lat="40.32930593460472" lon="18.036425448339045"><ele>34.25</ele><time>2026-04-12T13:13:15.014Z</time></trkpt><trkpt lat="40.329366216964864" lon="18.0362697647273"><ele>34.0</ele><time>2026-04-12T13:13:16.013Z</time></trkpt><trkpt lat="40.32939475801174" lon="18.036129378003565"><ele>34.0</ele><time>2026-04-12T13:13:17.015Z</time></trkpt><trkpt lat="40.32940851029835" lon="18.036001008895067"><ele>34.0</ele><time>2026-04-12T13:13:18.013Z</time></trkpt><trkpt lat="40.3294134276383" lon="18.035858098290856"><ele>34.0</ele><time>2026-04-12T13:13:19.013Z</time></trkpt><trkpt lat="40.329427895416984" lon="18.035706202962196"><ele>34.0</ele><time>2026-04-12T13:13:20.014Z</time></trkpt><trkpt lat="40.32945467618127" lon="18.035538471530305"><ele>37.0</ele><time>2026-04-12T13:13:21.013Z</time></trkpt><trkpt lat="40.33037960752952" lon="18.034614843602068"><ele>37.0</ele><time>2026-04-12T13:13:22.013Z</time></trkpt><trkpt lat="40.330381989467284" lon="18.034468918941155"><ele>37.0</ele><time>2026-04-12T13:13:23.013Z</time></trkpt><trkpt lat="40.330564919688214" lon="18.034313789925143"><ele>37.0</ele><time>2026-04-12T13:13:24.013Z</time></trkpt><trkpt lat="40.3305607294203" lon="18.03416743731611"><ele>37.0</ele><time>2026-04-12T13:13:25.013Z</time></trkpt><trkpt lat="40.33055763622175" lon="18.034031406870096"><ele>39.0</ele><time>2026-04-12T13:13:26.014Z</time></trkpt><trkpt lat="40.330455034340375" lon="18.032265254723555"><ele>40.0</ele><time>2026-04-12T13:13:40.944Z</time></trkpt><trkpt lat="40.31531404268609" lon="18.012909937412115"><ele>40.0</ele><time>2026-04-12T13:17:35.994Z</time></trkpt><trkpt lat="40.315263663593015" lon="18.01282073738213"><ele>40.0</ele><time>2026-04-12T13:17:59.001Z</time></trkpt><trkpt lat="40.31523230740497" lon="18.012738786219252"><ele>40.0</ele><time>2026-04-12T13:18:00.001Z</time></trkpt><trkpt lat="40.31517847222135" lon="18.012606654486728"><ele>40.0</ele><time>2026-04-12T13:18:02Z</time></trkpt><trkpt lat="40.31513588315519" lon="18.012537936807355"><ele>40.0</ele><time>2026-04-12T13:18:03Z</time></trkpt><trkpt lat="40.31509829431447" lon="18.012465233149868"><ele>40.0</ele><time>2026-04-12T13:18:04Z</time></trkpt><trkpt lat="40.31507344156023" lon="18.012388124504024"><ele>40.0</ele><time>2026-04-12T13:18:05Z</time></trkpt><trkpt lat="40.31502202477273" lon="18.012317882318378"><ele>40.0</ele><time>2026-04-12T13:18:08Z</time></trkpt><trkpt lat="40.31498775128969" lon="18.012209107674"><ele>40.0</ele><time>2026-04-12T13:18:10Z</time></trkpt><trkpt lat="40.314884553976" lon="18.012138823824504"><ele>40.0</ele><time>2026-04-12T13:18:12Z</time></trkpt><trkpt lat="40.31499085630664" lon="18.011808984409207"><ele>40.0</ele><time>2026-04-12T13:18:15Z</time></trkpt><trkpt lat="40.315004573607034" lon="18.011679605519166"><ele>40.0</ele><time>2026-04-12T13:18:16Z</time></trkpt><trkpt lat="40.315043383640784" lon="18.011544109765993"><ele>40.0</ele><time>2026-04-12T13:18:17Z</time></trkpt><trkpt lat="40.31506604112831" lon="18.01142216128584"><ele>40.0</ele><time>2026-04-12T13:18:18Z</time></trkpt><trkpt lat="40.31507178328114" lon="18.011298342318984"><ele>40.0</ele><time>2026-04-12T13:18:19Z</time></trkpt><trkpt lat="40.31508064591937" lon="18.011194034202234"><ele>40.0</ele><time>2026-04-12T13:18:20Z</time></trkpt><trkpt lat="40.315086372312805" lon="18.01109039131171"><ele>40.0</ele><time>2026-04-12T13:18:21Z</time></trkpt><trkpt lat="40.315099654962104" lon="18.010971905027503"><ele>40.0</ele><time>2026-04-12T13:18:22Z</time></trkpt><trkpt lat="40.31511443533715" lon="18.010849497525424"><ele>40.0</ele><time>2026-04-12T13:18:23Z</time></trkpt><trkpt lat="40.31512458681493" lon="18.01074310389803"><ele>40.0</ele><time>2026-04-12T13:18:24Z</time></trkpt><trkpt lat="40.31512019714213" lon="18.010637548038112"><ele>40.0</ele><time>2026-04-12T13:18:25Z</time></trkpt><trkpt lat="40.31512747921802" lon="18.010519690334103"><ele>40.16666666666667</ele><time>2026-04-12T13:18:26Z</time></trkpt><trkpt lat="40.315093036961464" lon="18.010381095387658"><ele>40.333333333333336</ele><time>2026-04-12T13:18:28Z</time></trkpt><trkpt lat="40.31507499589378" lon="18.010288436921982"><ele>40.5</ele><time>2026-04-12T13:18:31Z</time></trkpt><trkpt lat="40.31510337338186" lon="18.01021359267081"><ele>40.666666666666664</ele><time>2026-04-12T13:18:33Z</time></trkpt><trkpt lat="40.31516399772002" lon="18.010128047281963"><ele>40.83333333333333</ele><time>2026-04-12T13:18:36Z</time></trkpt><trkpt lat="40.315203445326944" lon="18.010055713940755"><ele>41.0</ele><time>2026-04-12T13:18:39Z</time></trkpt><trkpt lat="40.31525932346068" lon="18.010115961245862"><ele>41.0</ele><time>2026-04-12T13:18:47Z</time></trkpt><trkpt lat="40.31520295305571" lon="18.010171153919735"><ele>41.0</ele><time>2026-04-12T13:18:52Z</time></trkpt><trkpt lat="40.315194480014554" lon="18.010271840833525"><ele>41.0</ele><time>2026-04-12T13:18:54.999Z</time></trkpt><trkpt lat="40.315140587582846" lon="18.01056636856415"><ele>41.0</ele><time>2026-04-12T13:19:25.999Z</time></trkpt></trkseg></trk></gpx>